createdAt,value
2019-04-07T00:01:23.068Z,15.07
2019-04-07T00:03:49.676Z,14.93
2019-04-07T00:06:16.280Z,14.30
2019-04-07T00:08:43.250Z,14.63
2019-04-07T00:11:10.603Z,13.73
2019-04-07T00:13:39.034Z,14.40
2019-04-07T00:16:05.581Z,14.63
2019-04-07T00:18:32.567Z,14.20
2019-04-07T00:20:59.217Z,16.20
2019-04-07T00:23:25.899Z,14.07
2019-04-07T00:25:52.519Z,13.83
2019-04-07T00:28:19.633Z,14.70
2019-04-07T00:30:46.346Z,14.70
2019-04-07T00:33:13.363Z,15.43
2019-04-07T00:35:41.751Z,13.63
2019-04-07T00:38:08.375Z,13.50
2019-04-07T00:40:34.997Z,14.97
2019-04-07T00:43:01.595Z,15.00
2019-04-07T00:45:28.185Z,13.53
2019-04-07T00:47:54.767Z,14.97
2019-04-07T00:50:21.990Z,15.30
2019-04-07T00:52:49.168Z,15.93
2019-04-07T00:55:16.663Z,14.30
2019-04-07T00:57:44.089Z,14.27
2019-04-07T01:00:11.827Z,15.03
2019-04-07T01:02:38.821Z,15.20
2019-04-07T01:05:06.043Z,14.93
2019-04-07T01:07:33.434Z,15.23
2019-04-07T01:10:00.745Z,14.30
2019-04-07T01:12:27.357Z,15.07
2019-04-07T01:14:54.445Z,14.90
2019-04-07T01:17:21.561Z,15.23
2019-04-07T01:19:48.660Z,15.07
2019-04-07T01:22:15.687Z,15.17
2019-04-07T01:24:42.998Z,15.73
2019-04-07T01:27:10.433Z,15.57
2019-04-07T01:29:37.093Z,15.30
2019-04-07T01:32:04.042Z,15.97
2019-04-07T01:34:32.444Z,15.83
2019-04-07T01:36:59.789Z,15.80
2019-04-07T01:39:27.129Z,15.57
2019-04-07T01:42:15.371Z,14.60
2019-04-07T01:45:00.371Z,15.77
2019-04-07T01:47:33.301Z,16.70
2019-04-07T01:50:24.795Z,16.20
2019-04-07T01:53:02.549Z,14.97
2019-04-07T01:55:47.170Z,16.77
2019-04-07T01:58:42.831Z,15.40
2019-04-07T02:01:27.584Z,17.43
2019-04-07T02:04:14.301Z,16.60
2019-04-07T02:06:58.903Z,15.33
2019-04-07T02:09:34.688Z,15.37
2019-04-07T02:12:11.952Z,15.30
2019-04-07T02:14:45.534Z,16.60
2019-04-07T02:17:46.952Z,15.80
2019-04-07T02:20:38.786Z,15.83
2019-04-07T02:23:21.999Z,15.30
2019-04-07T02:26:06.102Z,15.53
2019-04-07T02:28:54.774Z,15.80
2019-04-07T02:31:40.134Z,14.90
2019-04-07T02:34:18.670Z,15.97
2019-04-07T02:37:07.781Z,16.97
2019-04-07T02:39:43.751Z,15.90
2019-04-07T02:42:30.396Z,16.23
2019-04-07T02:45:25.497Z,16.27
2019-04-07T02:48:14.837Z,16.17
2019-04-07T02:51:01.302Z,16.10
2019-04-07T02:53:48.065Z,17.40
2019-04-07T02:56:40.014Z,17.13
2019-04-07T02:59:16.185Z,15.87
2019-04-07T03:02:00.740Z,14.80
2019-04-07T03:04:56.738Z,16.53
2019-04-07T03:07:41.755Z,16.13
2019-04-07T03:10:27.788Z,15.43
2019-04-07T03:13:32.183Z,16.37
2019-04-07T03:16:11.861Z,15.40
2019-04-07T03:18:47.078Z,14.30
2019-04-07T03:21:33.353Z,15.93
2019-04-07T03:24:19.544Z,17.30
2019-04-07T03:27:10.104Z,16.13
2019-04-07T03:30:02.129Z,16.03
2019-04-07T03:32:49.300Z,16.43
2019-04-07T03:35:29.049Z,17.20
2019-04-07T03:38:07.854Z,15.33
2019-04-07T03:40:54.896Z,15.37
2019-04-07T03:43:35.999Z,15.57
2019-04-07T03:46:25.214Z,16.33
2019-04-07T03:48:57.998Z,14.97
2019-04-07T03:51:33.909Z,15.10
2019-04-07T03:54:19.136Z,15.60
2019-04-07T03:57:24.145Z,17.43
2019-04-07T04:00:10.498Z,16.23
2019-04-07T04:02:48.445Z,14.10
2019-04-07T04:05:47.702Z,15.50
2019-04-07T04:08:21.150Z,16.47
2019-04-07T04:11:14.824Z,15.80
2019-04-07T04:13:58.367Z,15.03
2019-04-07T04:16:34.063Z,15.67
2019-04-07T04:19:02.480Z,15.80
2019-04-07T04:21:30.819Z,16.57
2019-04-07T04:24:00.583Z,16.20
2019-04-07T04:26:28.966Z,16.60
2019-04-07T04:28:58.252Z,15.33
2019-04-07T04:31:25.683Z,15.33
2019-04-07T04:33:55.595Z,16.23
2019-04-07T04:36:27.291Z,15.53
2019-04-07T04:38:55.513Z,17.00
2019-04-07T04:41:23.143Z,17.13
2019-04-07T04:43:50.127Z,15.40
2019-04-07T04:46:17.058Z,15.77
2019-04-07T04:48:44.031Z,15.67
2019-04-07T04:51:11.786Z,16.27
2019-04-07T04:53:38.440Z,16.40
2019-04-07T04:56:05.592Z,15.20
2019-04-07T04:58:32.662Z,14.37
2019-04-07T05:00:59.705Z,16.17
2019-04-07T05:03:27.189Z,15.77
2019-04-07T05:05:54.548Z,16.93
2019-04-07T05:08:21.336Z,15.50
2019-04-07T05:10:48.986Z,15.10
2019-04-07T05:13:15.992Z,16.43
2019-04-07T05:15:43.372Z,16.17
2019-04-07T05:18:12.043Z,15.37
2019-04-07T05:20:39.783Z,16.27
2019-04-07T05:23:06.784Z,16.63
2019-04-07T05:25:33.788Z,15.57
2019-04-07T05:28:01.218Z,15.77
2019-04-07T05:30:28.238Z,17.03
2019-04-07T05:32:55.529Z,16.90
2019-04-07T05:35:22.687Z,16.03
2019-04-07T05:38:00.136Z,16.43
2019-04-07T05:40:18.018Z,18.53
2019-04-07T05:42:44.611Z,15.87
2019-04-07T05:45:11.540Z,15.67
2019-04-07T05:47:43.164Z,13.40
2019-04-07T05:50:07.719Z,16.13
2019-04-07T05:52:39.056Z,16.80
2019-04-07T05:55:02.883Z,15.93
2019-04-07T05:57:33.378Z,15.37
2019-04-07T05:59:58.076Z,16.27
2019-04-07T06:02:24.604Z,15.37
2019-04-07T06:04:53.485Z,17.63
2019-04-07T06:07:20.267Z,15.57
2019-04-07T06:09:49.931Z,15.93
2019-04-07T06:12:16.098Z,14.97
2019-04-07T06:14:45.904Z,15.97
2019-04-07T06:17:11.137Z,15.47
2019-04-07T06:19:41.088Z,15.03
2019-04-07T06:22:07.917Z,15.23
2019-04-07T06:24:41.297Z,14.97
2019-04-07T06:27:08.579Z,15.93
2019-04-07T06:29:36.600Z,14.90
2019-04-07T06:32:05.227Z,16.10
2019-04-07T06:34:33.781Z,13.83
2019-04-07T06:37:00.611Z,14.53
2019-04-07T06:39:27.751Z,15.17
2019-04-07T06:41:54.716Z,14.53
2019-04-07T06:44:22.988Z,14.67
2019-04-07T06:47:04.694Z,14.80
2019-04-07T06:49:53.651Z,14.77
2019-04-07T06:52:38.678Z,14.93
2019-04-07T06:55:33.017Z,15.13
2019-04-07T06:58:14.552Z,15.00
2019-04-07T07:01:06.911Z,14.57
2019-04-07T07:03:53.818Z,15.27
2019-04-07T07:06:47.183Z,13.90
2019-04-07T07:09:29.220Z,14.40
2019-04-07T07:12:31.656Z,13.70
2019-04-07T07:15:19.246Z,15.03
2019-04-07T07:18:04.651Z,14.63
2019-04-07T07:20:49.691Z,14.50
2019-04-07T07:23:28.850Z,15.97
2019-04-07T07:25:56.537Z,14.80
2019-04-07T07:28:23.715Z,15.60
2019-04-07T07:30:52.538Z,15.27
2019-04-07T07:33:19.056Z,15.83
2019-04-07T07:35:49.111Z,15.40
2019-04-07T07:38:14.882Z,17.70
2019-04-07T07:40:42.674Z,16.00
2019-04-07T07:43:09.795Z,16.53
2019-04-07T07:45:37.175Z,17.20
2019-04-07T07:48:06.355Z,17.07
2019-04-07T07:50:36.757Z,16.67
2019-04-07T07:53:01.408Z,17.07
2019-04-07T07:55:30.621Z,17.93
2019-04-07T07:57:59.010Z,17.07
2019-04-07T08:00:25.681Z,17.00
2019-04-07T08:02:53.797Z,19.13
2019-04-07T08:05:22.757Z,19.83
2019-04-07T08:07:50.451Z,17.77
2019-04-07T08:10:18.614Z,17.90
2019-04-07T08:12:47.214Z,18.97
2019-04-07T08:15:13.874Z,19.83
2019-04-07T08:17:40.977Z,18.53
2019-04-07T08:20:07.846Z,20.57
2019-04-07T08:22:40.728Z,19.93
2019-04-07T08:25:02.913Z,20.83
2019-04-07T08:27:31.049Z,19.13
2019-04-07T08:29:58.297Z,21.50
2019-04-07T08:32:28.068Z,22.03
2019-04-07T08:34:54.763Z,20.00
2019-04-07T08:37:21.900Z,19.63
2019-04-07T08:39:48.711Z,20.60
2019-04-07T08:42:18.619Z,20.50
2019-04-07T08:44:45.129Z,19.97
2019-04-07T08:47:22.169Z,21.53
2019-04-07T08:49:48.257Z,20.83
2019-04-07T08:52:15.278Z,21.57
2019-04-07T08:54:42.221Z,21.10
2019-04-07T08:57:09.540Z,20.80
2019-04-07T08:59:39.871Z,21.77
2019-04-07T09:02:07.513Z,20.20
2019-04-07T09:04:34.459Z,21.90
2019-04-07T09:07:03.029Z,23.27
2019-04-07T09:09:34.056Z,20.80
2019-04-07T09:11:59.290Z,20.20
2019-04-07T09:14:25.939Z,20.70
2019-04-07T09:17:15.431Z,20.80
2019-04-07T09:20:06.258Z,20.40
2019-04-07T09:22:54.978Z,21.70
2019-04-07T09:25:41.112Z,20.43
2019-04-07T09:28:27.373Z,23.60
2019-04-07T09:31:12.122Z,22.47
2019-04-07T09:33:55.026Z,21.87
2019-04-07T09:36:44.101Z,22.30
2019-04-07T09:39:34.529Z,22.00
2019-04-07T09:42:29.166Z,23.00
2019-04-07T09:45:24.074Z,21.07
2019-04-07T09:48:17.715Z,22.47
2019-04-07T09:50:50.332Z,21.93
2019-04-07T09:53:25.742Z,21.23
2019-04-07T09:56:14.662Z,23.10
2019-04-07T09:58:59.207Z,23.33
2019-04-07T10:01:32.998Z,23.83
2019-04-07T10:04:07.797Z,22.50
2019-04-07T10:06:52.290Z,22.53
2019-04-07T10:09:44.704Z,24.60
2019-04-07T10:12:28.246Z,21.47
2019-04-07T10:15:20.491Z,24.43
2019-04-07T10:17:57.617Z,23.77
2019-04-07T10:20:35.838Z,23.57
2019-04-07T10:23:21.940Z,22.67
2019-04-07T10:25:58.638Z,22.97
2019-04-07T10:28:39.961Z,22.53
2019-04-07T10:31:28.361Z,25.73
2019-04-07T10:34:17.235Z,24.50
2019-04-07T10:37:18.888Z,23.60
2019-04-07T10:40:19.584Z,22.93
2019-04-07T10:43:11.702Z,23.30
2019-04-07T10:45:50.894Z,23.47
2019-04-07T10:48:45.720Z,23.10
2019-04-07T10:51:29.336Z,21.87
2019-04-07T10:54:22.200Z,22.27
2019-04-07T10:56:54.293Z,24.90
2019-04-07T10:59:40.251Z,24.90
2019-04-07T11:02:20.641Z,25.40
2019-04-07T11:07:59.240Z,24.83
2019-04-07T11:10:44.197Z,23.27
2019-04-07T11:13:40.329Z,22.73
2019-04-07T11:16:16.251Z,24.50
2019-04-07T11:19:04.484Z,24.77
2019-04-07T11:21:50.243Z,24.43
2019-04-07T11:24:35.214Z,24.80
2019-04-07T11:27:21.624Z,24.77
2019-04-07T11:30:11.469Z,24.60
2019-04-07T11:32:57.680Z,23.83
2019-04-07T11:35:37.403Z,24.03
2019-04-07T11:38:19.101Z,24.03
2019-04-07T11:41:04.612Z,24.17
2019-04-07T11:43:49.077Z,25.93
2019-04-07T11:46:41.930Z,24.30
2019-04-07T11:49:13.791Z,24.90
2019-04-07T11:51:49.347Z,23.97
2019-04-07T11:54:35.722Z,25.63
2019-04-07T11:57:21.526Z,25.03
2019-04-07T12:00:10.588Z,24.83
2019-04-07T12:02:45.553Z,25.17
2019-04-07T12:05:28.713Z,25.50
2019-04-07T12:08:13.996Z,24.97
2019-04-07T12:11:04.668Z,23.97
2019-04-07T12:13:47.956Z,25.67
2019-04-07T12:16:27.644Z,23.13
2019-04-07T12:19:11.673Z,24.30
2019-04-07T12:21:58.292Z,25.83
2019-04-07T12:24:45.492Z,24.57
2019-04-07T12:27:22.473Z,26.20
2019-04-07T12:30:11.465Z,25.00
2019-04-07T12:33:00.429Z,22.80
2019-04-07T12:35:55.170Z,24.67
2019-04-07T12:38:45.013Z,25.00
2019-04-07T12:41:27.745Z,22.60
2019-04-07T12:44:23.421Z,24.47
2019-04-07T12:47:13.409Z,23.80
2019-04-07T12:49:59.428Z,22.73
2019-04-07T12:53:03.439Z,23.97
2019-04-07T12:56:08.083Z,22.73
2019-04-07T12:58:50.517Z,22.83
2019-04-07T13:01:28.118Z,24.43
2019-04-07T13:04:20.034Z,23.47
2019-04-07T13:07:21.808Z,25.43
2019-04-07T13:10:14.301Z,22.47
2019-04-07T13:13:13.405Z,22.93
2019-04-07T13:16:03.438Z,24.67
2019-04-07T13:18:52.752Z,23.63
2019-04-07T13:21:27.893Z,23.60
2019-04-07T13:24:13.930Z,24.30
2019-04-07T13:26:47.767Z,23.93
2019-04-07T13:29:21.491Z,24.03
2019-04-07T13:32:10.351Z,23.27
2019-04-07T13:35:11.724Z,22.27
2019-04-07T13:37:45.535Z,23.87
2019-04-07T13:40:22.705Z,24.03
2019-04-07T13:43:09.085Z,23.30
2019-04-07T13:48:43.250Z,24.23
2019-04-07T13:51:28.006Z,24.57
2019-04-07T13:54:17.825Z,23.00
2019-04-07T13:57:04.470Z,23.50
2019-04-07T13:59:49.243Z,23.93
2019-04-07T14:02:37.824Z,22.77
2019-04-07T14:05:25.918Z,21.85
2019-04-07T14:08:16.084Z,22.67
2019-04-07T14:10:51.327Z,23.73
2019-04-07T14:13:40.407Z,21.63
2019-04-07T14:16:30.163Z,22.67
2019-04-07T14:19:15.385Z,22.43
2019-04-07T14:21:55.985Z,20.73
2019-04-07T14:24:41.486Z,22.83
2019-04-07T14:27:30.972Z,22.40
2019-04-07T14:30:10.306Z,23.77
2019-04-07T14:32:56.761Z,22.05
2019-04-07T14:35:43.027Z,22.43
2019-04-07T14:38:26.566Z,22.17
2019-04-07T14:41:13.881Z,22.30
2019-04-07T14:43:59.453Z,22.17
2019-04-07T14:46:58.948Z,22.50
2019-04-07T14:49:36.832Z,21.83
2019-04-07T14:52:25.271Z,23.13
2019-04-07T14:55:17.248Z,22.63
2019-04-07T14:58:02.078Z,21.93
2019-04-07T15:00:49.091Z,22.65
2019-04-07T15:03:16.918Z,21.50
2019-04-07T15:05:46.203Z,22.55
2019-04-07T15:08:36.619Z,21.87
2019-04-07T15:11:15.263Z,20.27
2019-04-07T15:13:41.836Z,20.90
2019-04-07T15:16:11.177Z,21.43
2019-04-07T15:18:38.198Z,20.27
2019-04-07T15:21:05.682Z,20.63
2019-04-07T15:23:33.379Z,21.15
2019-04-07T15:26:00.383Z,20.10
2019-04-07T15:28:29.767Z,21.33
2019-04-07T15:30:56.823Z,21.27
2019-04-07T15:33:24.196Z,20.33
2019-04-07T15:35:52.316Z,20.37
2019-04-07T15:38:23.839Z,20.32
2019-04-07T15:40:48.196Z,21.20
2019-04-07T15:43:15.825Z,17.93
2019-04-07T15:45:44.451Z,19.50
2019-04-07T15:48:11.351Z,18.48
2019-04-07T15:50:38.337Z,17.57
2019-04-07T15:53:14.968Z,18.33
2019-04-07T15:55:49.197Z,17.17
2019-04-07T15:58:09.653Z,17.23
2019-04-07T16:00:36.253Z,16.63
2019-04-07T16:03:04.185Z,17.17
2019-04-07T16:05:38.024Z,17.17
2019-04-07T16:07:59.846Z,16.50
2019-04-07T16:10:26.533Z,15.00
2019-04-07T16:12:54.357Z,16.67
2019-04-07T16:15:21.980Z,15.67
2019-04-07T16:17:49.118Z,14.93
2019-04-07T16:20:23.282Z,14.50
2019-04-07T16:22:46.584Z,15.30
2019-04-07T16:25:13.222Z,15.13
2019-04-07T16:27:40.050Z,15.10
2019-04-07T16:30:07.461Z,14.83
2019-04-07T16:32:34.190Z,14.80
2019-04-07T16:35:01.770Z,14.67
2019-04-07T16:37:29.438Z,13.95
2019-04-07T16:39:57.996Z,16.27
2019-04-07T16:42:25.440Z,16.05
2019-04-07T16:44:52.656Z,14.50
2019-04-07T16:47:24.449Z,15.33
2019-04-07T16:49:48.982Z,13.77
2019-04-07T16:52:15.762Z,14.83
2019-04-07T16:54:44.972Z,13.73
2019-04-07T16:57:12.979Z,14.00
2019-04-07T16:59:42.778Z,14.47
2019-04-07T17:02:09.166Z,15.27
2019-04-07T17:04:36.495Z,13.77
2019-04-07T17:07:05.344Z,14.77
2019-04-07T17:09:34.105Z,15.57
2019-04-07T17:12:00.632Z,14.20
2019-04-07T17:14:27.335Z,15.20
2019-04-07T17:16:54.662Z,14.87
2019-04-07T17:19:21.521Z,15.47
2019-04-07T17:21:48.996Z,14.43
2019-04-07T17:24:16.324Z,15.70
2019-04-07T17:26:43.535Z,15.90
2019-04-07T17:29:10.907Z,16.33
2019-04-07T17:31:38.030Z,15.77
2019-04-07T17:34:07.426Z,14.67
2019-04-07T17:36:34.279Z,15.27
2019-04-07T17:39:20.570Z,14.80
2019-04-07T17:41:49.875Z,14.20
2019-04-07T17:44:28.611Z,15.17
2019-04-07T17:47:13.707Z,18.80
2019-04-07T17:50:12.697Z,22.93
2019-04-07T17:52:58.048Z,22.60
2019-04-07T17:55:44.221Z,23.10
2019-04-07T17:58:32.066Z,25.60
2019-04-07T18:01:36.598Z,24.60
2019-04-07T18:04:42.937Z,25.67
2019-04-07T18:07:27.466Z,25.33
2019-04-07T18:10:16.673Z,25.60
2019-04-07T18:12:51.433Z,26.27
2019-04-07T18:15:46.754Z,23.43
2019-04-07T18:18:44.807Z,25.00
2019-04-07T18:21:25.749Z,26.27
2019-04-07T18:24:09.094Z,27.50
2019-04-07T18:26:45.110Z,26.53
2019-04-07T18:29:21.238Z,25.13
2019-04-07T18:32:25.314Z,27.07
2019-04-07T18:35:02.528Z,26.33
2019-04-07T18:37:42.267Z,24.80
2019-04-07T18:40:29.546Z,24.23
2019-04-07T18:43:19.907Z,25.40
2019-04-07T18:46:09.871Z,24.63
2019-04-07T18:49:06.781Z,25.83
2019-04-07T18:51:58.981Z,26.40
2019-04-07T18:55:06.619Z,26.17
2019-04-07T18:57:52.016Z,24.73
2019-04-07T19:00:50.669Z,28.53
2019-04-07T19:03:36.210Z,27.27
2019-04-07T19:06:22.355Z,27.47
2019-04-07T19:09:08.522Z,25.50
2019-04-07T19:12:14.095Z,27.23
2019-04-07T19:15:03.741Z,28.30
2019-04-07T19:17:46.129Z,29.00
2019-04-07T19:20:47.980Z,30.07
2019-04-07T19:23:49.075Z,28.33
2019-04-07T19:26:33.560Z,29.60
2019-04-07T19:29:28.679Z,28.47
2019-04-07T19:32:27.183Z,29.13
2019-04-07T19:35:13.444Z,29.30
2019-04-07T19:38:08.770Z,30.17
2019-04-07T19:40:49.201Z,28.67
2019-04-07T19:43:43.703Z,30.67
2019-04-07T19:46:30.636Z,29.57
2019-04-07T19:49:20.413Z,29.37
2019-04-07T19:52:10.722Z,29.67
2019-04-07T19:54:56.065Z,29.97
2019-04-07T19:57:42.847Z,29.07
2019-04-07T20:00:26.111Z,28.80
2019-04-07T20:03:10.110Z,28.43
2019-04-07T20:06:14.702Z,27.97
2019-04-07T20:09:19.598Z,28.23
2019-04-07T20:12:06.457Z,28.83
2019-04-07T20:15:04.497Z,27.83
2019-04-07T20:17:41.535Z,28.07
2019-04-07T20:20:14.676Z,29.23
2019-04-07T20:23:04.421Z,29.47
2019-04-07T20:25:46.198Z,29.80
2019-04-07T20:28:25.159Z,29.10
2019-04-07T20:31:21.900Z,29.80
2019-04-07T20:34:02.229Z,28.43
2019-04-07T20:36:38.601Z,29.57
2019-04-07T20:39:09.415Z,30.03
2019-04-07T20:41:58.840Z,30.53
2019-04-07T20:44:44.788Z,29.77
2019-04-07T20:47:29.639Z,27.90
2019-04-07T20:50:15.493Z,29.90
2019-04-07T20:52:53.603Z,30.33
2019-04-07T20:55:27.645Z,31.13
2019-04-07T20:58:42.167Z,29.37
2019-04-07T21:01:18.725Z,28.03
2019-04-07T21:04:03.225Z,30.30
2019-04-07T21:06:49.623Z,29.70
2019-04-07T21:09:23.613Z,30.23
2019-04-07T21:12:25.248Z,30.03
2019-04-07T21:15:20.884Z,29.17
2019-04-07T21:17:50.219Z,29.67
2019-04-07T21:20:36.737Z,29.80
2019-04-07T21:23:18.624Z,30.00
2019-04-07T21:26:13.850Z,29.93
2019-04-07T21:28:58.881Z,29.63
2019-04-07T21:31:42.816Z,28.87
2019-04-07T21:34:38.573Z,29.33
2019-04-07T21:37:15.181Z,28.77
2019-04-07T21:40:07.566Z,29.53
2019-04-07T21:42:54.505Z,29.90
2019-04-07T21:45:45.704Z,29.97
2019-04-07T21:48:16.384Z,31.53
2019-04-07T21:51:02.333Z,30.07
2019-04-07T21:53:48.650Z,30.07
2019-04-07T21:56:38.983Z,31.07
2019-04-07T21:59:33.575Z,31.90
2019-04-07T22:02:35.203Z,32.00
2019-04-07T22:08:12.904Z,28.20
2019-04-07T22:10:36.059Z,31.33
2019-04-07T22:13:04.935Z,30.53
2019-04-07T22:15:43.240Z,29.83
2019-04-07T22:18:06.286Z,30.27
2019-04-07T22:20:32.315Z,29.83
2019-04-07T22:23:02.849Z,30.70
2019-04-07T22:25:32.534Z,30.53
2019-04-07T22:28:01.598Z,31.37
2019-04-07T22:30:30.611Z,31.67
2019-04-07T22:32:59.765Z,32.07
2019-04-07T22:35:27.135Z,30.77
2019-04-07T22:37:54.771Z,31.60
2019-04-07T22:40:22.525Z,30.37
2019-04-07T22:42:50.158Z,30.87
2019-04-07T22:45:21.822Z,32.17
2019-04-07T22:47:51.539Z,31.33
2019-04-07T22:50:15.949Z,30.83
2019-04-07T22:52:47.308Z,33.13
2019-04-07T22:55:12.193Z,32.47
2019-04-07T22:57:38.967Z,31.63
2019-04-07T23:00:06.375Z,32.90
2019-04-07T23:02:33.051Z,30.27
2019-04-07T23:04:59.759Z,33.17
2019-04-07T23:07:26.367Z,32.40
2019-04-07T23:09:53.813Z,32.53
2019-04-07T23:12:20.983Z,32.20
2019-04-07T23:14:47.725Z,33.20
2019-04-07T23:17:15.388Z,31.63
2019-04-07T23:19:43.843Z,32.20
2019-04-07T23:22:10.352Z,31.23
2019-04-07T23:24:36.964Z,32.27
2019-04-07T23:27:04.130Z,31.07
2019-04-07T23:29:30.813Z,32.10
2019-04-07T23:31:57.650Z,31.40
2019-04-07T23:34:25.347Z,30.53
2019-04-07T23:36:52.449Z,31.60
2019-04-07T23:39:19.541Z,31.83
2019-04-07T23:41:46.194Z,30.87
2019-04-07T23:44:13.011Z,31.07
2019-04-07T23:46:39.750Z,31.30
2019-04-07T23:49:06.370Z,31.07
2019-04-07T23:51:32.930Z,32.30
2019-04-07T23:54:00.679Z,30.90
2019-04-07T23:56:27.344Z,32.23
2019-04-07T23:58:54.195Z,29.53
